createdAt,value
2022-10-22T00:00:47.895Z,5.45
2022-10-22T00:01:50.074Z,6.45
2022-10-22T00:02:52.302Z,5.97
2022-10-22T00:03:55.013Z,5.95
2022-10-22T00:04:57.324Z,6.32
2022-10-22T00:05:59.495Z,6.95
2022-10-22T00:07:01.614Z,6.75
2022-10-22T00:08:03.872Z,7.25
2022-10-22T00:09:06.030Z,6.22
2022-10-22T00:10:08.768Z,5.68
2022-10-22T00:11:15.021Z,5.78
2022-10-22T00:12:18.544Z,5.05
2022-10-22T00:13:21.107Z,5.72
2022-10-22T00:14:23.309Z,6.95
2022-10-22T00:15:25.609Z,5.60
2022-10-22T00:16:27.787Z,6.30
2022-10-22T00:17:29.915Z,6.65
2022-10-22T00:18:32.135Z,6.55
2022-10-22T00:19:34.296Z,5.63
2022-10-22T00:20:36.762Z,5.80
2022-10-22T00:21:39.186Z,6.13
2022-10-22T00:22:41.401Z,5.07
2022-10-22T00:23:43.792Z,5.75
2022-10-22T00:24:45.878Z,5.65
2022-10-22T00:25:48.047Z,6.82
2022-10-22T00:26:50.310Z,5.90
2022-10-22T00:27:52.610Z,4.93
2022-10-22T00:28:54.720Z,5.57
2022-10-22T00:29:56.856Z,6.30
2022-10-22T00:31:00.543Z,6.43
2022-10-22T00:32:03.656Z,4.47
2022-10-22T00:33:05.810Z,5.82
2022-10-22T00:34:07.943Z,6.05
2022-10-22T00:35:10.111Z,6.10
2022-10-22T00:36:12.769Z,5.70
2022-10-22T00:37:14.997Z,6.20
2022-10-22T00:38:17.243Z,5.68
2022-10-22T00:39:23.019Z,4.43
2022-10-22T00:40:25.560Z,5.05
2022-10-22T00:41:27.749Z,5.85
2022-10-22T00:42:30.470Z,6.35
2022-10-22T00:43:32.670Z,5.55
2022-10-22T00:44:59.397Z,4.88
2022-10-22T00:46:01.510Z,6.38
2022-10-22T00:47:03.679Z,5.65
2022-10-22T00:48:05.946Z,6.15
2022-10-22T00:49:08.091Z,5.88
2022-10-22T00:50:17.547Z,4.97
2022-10-22T00:51:21.719Z,5.90
2022-10-22T00:52:24.508Z,5.57
2022-10-22T00:53:29.593Z,4.78
2022-10-22T00:54:31.777Z,4.97
2022-10-22T00:55:34.331Z,5.78
2022-10-22T00:56:37.436Z,5.57
2022-10-22T00:57:40.405Z,5.68
2022-10-22T00:58:47.018Z,5.38
2022-10-22T00:59:49.911Z,6.03
2022-10-22T01:00:52.195Z,5.78
2022-10-22T01:01:54.558Z,5.88
2022-10-22T01:02:58.000Z,5.95
2022-10-22T01:04:00.853Z,6.43
2022-10-22T01:05:03.915Z,6.43
2022-10-22T01:06:06.365Z,5.72
2022-10-22T01:07:16.690Z,5.70
2022-10-22T01:08:25.063Z,6.57
2022-10-22T01:09:39.132Z,5.53
2022-10-22T01:11:01.434Z,6.50
2022-10-22T01:12:03.532Z,5.50
2022-10-22T01:13:24.051Z,5.15
2022-10-22T01:14:44.041Z,5.53
2022-10-22T01:16:00.351Z,5.32
2022-10-22T01:17:23.282Z,5.63
2022-10-22T01:18:54.830Z,4.72
2022-10-22T01:20:02.972Z,4.40
2022-10-22T01:21:24.943Z,4.90
2022-10-22T01:22:42.479Z,5.32
2022-10-22T01:23:47.599Z,5.82
2022-10-22T01:25:14.584Z,6.07
2022-10-22T01:26:39.657Z,4.95
2022-10-22T01:27:57.263Z,5.65
2022-10-22T01:29:10.754Z,4.82
2022-10-22T01:30:14.681Z,5.55
2022-10-22T01:31:18.152Z,6.45
2022-10-22T01:32:25.740Z,5.80
2022-10-22T01:33:30.402Z,5.72
2022-10-22T01:34:34.441Z,6.03
2022-10-22T01:35:43.965Z,5.15
2022-10-22T01:36:48.024Z,5.72
2022-10-22T01:37:54.361Z,5.43
2022-10-22T01:38:58.855Z,5.88
2022-10-22T01:40:02.310Z,5.47
2022-10-22T01:41:04.692Z,5.65
2022-10-22T01:42:06.866Z,5.15
2022-10-22T01:43:11.551Z,5.57
2022-10-22T01:44:25.160Z,5.40
2022-10-22T01:45:30.708Z,6.03
2022-10-22T01:46:32.971Z,6.30
2022-10-22T01:47:57.500Z,5.82
2022-10-22T01:49:17.446Z,5.13
2022-10-22T01:50:31.560Z,6.35
2022-10-22T01:51:53.198Z,5.65
2022-10-22T01:53:01.361Z,6.63
2022-10-22T01:54:35.790Z,4.93
2022-10-22T01:56:05.619Z,6.18
2022-10-22T01:57:20.742Z,5.78
2022-10-22T01:58:49.701Z,5.68
2022-10-22T02:00:12.716Z,6.10
2022-10-22T02:01:47.211Z,6.18
2022-10-22T02:02:57.214Z,6.82
2022-10-22T02:04:08.619Z,6.07
2022-10-22T02:05:15.669Z,6.13
2022-10-22T02:06:23.225Z,4.57
2022-10-22T02:07:31.118Z,5.82
2022-10-22T02:08:35.784Z,5.53
2022-10-22T02:09:40.347Z,5.35
2022-10-22T02:10:45.123Z,5.28
2022-10-22T02:11:48.934Z,5.60
2022-10-22T02:12:55.390Z,5.53
2022-10-22T02:14:03.617Z,5.45
2022-10-22T02:15:06.698Z,5.32
2022-10-22T02:16:13.374Z,5.38
2022-10-22T02:17:19.511Z,5.18
2022-10-22T02:18:25.951Z,5.22
2022-10-22T02:19:36.943Z,6.18
2022-10-22T02:20:42.209Z,5.28
2022-10-22T02:21:44.859Z,6.22
2022-10-22T02:22:47.338Z,5.30
2022-10-22T02:23:50.006Z,6.13
2022-10-22T02:24:52.183Z,5.90
2022-10-22T02:26:03.539Z,4.72
2022-10-22T02:27:18.263Z,5.57
2022-10-22T02:28:29.193Z,5.28
2022-10-22T02:29:39.886Z,5.82
2022-10-22T02:30:47.487Z,5.10
2022-10-22T02:31:52.262Z,5.90
2022-10-22T02:32:59.645Z,6.15
2022-10-22T02:34:08.735Z,5.95
2022-10-22T02:35:15.019Z,6.05
2022-10-22T02:36:18.658Z,5.40
2022-10-22T02:37:21.790Z,5.47
2022-10-22T02:38:26.464Z,6.28
2022-10-22T02:39:29.959Z,5.65
2022-10-22T02:40:32.681Z,5.68
2022-10-22T02:41:35.326Z,5.60
2022-10-22T02:42:40.747Z,6.15
2022-10-22T02:43:45.333Z,5.75
2022-10-22T02:44:47.451Z,6.28
2022-10-22T02:45:49.815Z,5.90
2022-10-22T02:46:52.063Z,5.97
2022-10-22T02:47:54.225Z,5.13
2022-10-22T02:48:56.373Z,5.13
2022-10-22T02:49:58.757Z,5.20
2022-10-22T02:51:00.874Z,6.50
2022-10-22T02:52:02.997Z,6.55
2022-10-22T02:53:05.171Z,5.85
2022-10-22T02:54:07.529Z,5.90
2022-10-22T02:55:09.755Z,5.68
2022-10-22T02:56:12.562Z,5.32
2022-10-22T02:57:14.778Z,5.97
2022-10-22T02:58:17.110Z,6.75
2022-10-22T02:59:19.319Z,7.18
2022-10-22T03:00:21.833Z,6.00
2022-10-22T03:01:24.003Z,5.88
2022-10-22T03:02:26.163Z,6.95
2022-10-22T03:03:28.307Z,6.10
2022-10-22T03:04:30.500Z,5.72
2022-10-22T03:05:32.654Z,5.57
2022-10-22T03:06:34.916Z,5.70
2022-10-22T03:07:37.100Z,5.80
2022-10-22T03:08:39.287Z,5.88
2022-10-22T03:09:41.507Z,5.53
2022-10-22T03:10:43.842Z,5.50
2022-10-22T03:11:46.974Z,6.97
2022-10-22T03:12:49.147Z,5.57
2022-10-22T03:13:51.376Z,5.30
2022-10-22T03:14:53.509Z,5.32
2022-10-22T03:15:55.624Z,5.93
2022-10-22T03:16:57.762Z,6.18
2022-10-22T03:17:59.881Z,5.38
2022-10-22T03:19:02.044Z,6.25
2022-10-22T03:20:04.439Z,5.10
2022-10-22T03:21:14.919Z,6.13
2022-10-22T03:22:22.011Z,5.03
2022-10-22T03:23:24.189Z,5.03
2022-10-22T03:24:31.055Z,5.95
2022-10-22T03:25:34.590Z,6.18
2022-10-22T03:26:38.747Z,5.47
2022-10-22T03:27:42.284Z,4.80
2022-10-22T03:28:47.854Z,4.43
2022-10-22T03:29:52.530Z,5.13
2022-10-22T03:30:54.653Z,5.28
2022-10-22T03:31:56.815Z,5.72
2022-10-22T03:32:59.032Z,5.60
2022-10-22T03:34:01.200Z,5.22
2022-10-22T03:35:04.106Z,4.78
2022-10-22T03:36:09.327Z,4.65
2022-10-22T03:37:11.647Z,5.90
2022-10-22T03:38:14.866Z,5.85
2022-10-22T03:39:19.861Z,5.38
2022-10-22T03:40:22.380Z,6.20
2022-10-22T03:41:24.594Z,4.40
2022-10-22T03:42:26.991Z,6.03
2022-10-22T03:43:29.294Z,5.28
2022-10-22T03:44:32.477Z,5.65
2022-10-22T03:45:34.616Z,6.32
2022-10-22T03:46:36.826Z,4.80
2022-10-22T03:47:39.279Z,4.82
2022-10-22T03:48:41.658Z,6.03
2022-10-22T03:49:43.810Z,6.38
2022-10-22T03:50:46.070Z,5.28
2022-10-22T03:51:48.249Z,5.20
2022-10-22T03:52:50.399Z,5.40
2022-10-22T03:53:52.498Z,4.72
2022-10-22T03:54:54.781Z,5.20
2022-10-22T03:55:56.933Z,6.03
2022-10-22T03:56:59.096Z,5.78
2022-10-22T03:58:01.308Z,5.25
2022-10-22T03:59:04.048Z,6.15
2022-10-22T04:00:07.035Z,5.10
2022-10-22T04:01:11.863Z,4.90
2022-10-22T04:02:14.460Z,5.07
2022-10-22T04:03:16.628Z,4.65
2022-10-22T04:04:18.742Z,5.57
2022-10-22T04:05:20.908Z,6.20
2022-10-22T04:06:23.364Z,5.03
2022-10-22T04:07:25.564Z,4.40
2022-10-22T04:08:27.704Z,4.32
2022-10-22T04:09:33.601Z,4.50
2022-10-22T04:10:35.872Z,5.78
2022-10-22T04:11:37.987Z,5.25
2022-10-22T04:12:40.071Z,5.13
2022-10-22T04:13:43.006Z,6.03
2022-10-22T04:14:45.106Z,5.80
2022-10-22T04:15:47.261Z,6.03
2022-10-22T04:16:49.937Z,6.20
2022-10-22T04:17:52.259Z,5.80
2022-10-22T04:18:54.363Z,5.95
2022-10-22T04:19:56.466Z,5.50
2022-10-22T04:20:58.571Z,5.80
2022-10-22T04:22:01.409Z,6.30
2022-10-22T04:23:03.549Z,5.65
2022-10-22T04:24:05.939Z,5.95
2022-10-22T04:25:08.357Z,5.30
2022-10-22T04:26:10.579Z,4.95
2022-10-22T04:27:12.691Z,5.05
2022-10-22T04:28:14.867Z,4.72
2022-10-22T04:29:17.018Z,4.82
2022-10-22T04:30:19.145Z,4.82
2022-10-22T04:31:23.979Z,5.53
2022-10-22T04:32:26.926Z,5.45
2022-10-22T04:33:29.052Z,4.60
2022-10-22T04:34:31.376Z,5.10
2022-10-22T04:35:33.508Z,4.75
2022-10-22T04:36:35.669Z,5.78
2022-10-22T04:37:37.931Z,5.00
2022-10-22T04:38:41.481Z,6.10
2022-10-22T04:39:43.622Z,4.35
2022-10-22T04:40:45.701Z,5.22
2022-10-22T04:41:47.804Z,5.63
2022-10-22T04:42:49.961Z,4.40
2022-10-22T04:43:53.850Z,4.75
2022-10-22T04:44:56.079Z,4.95
2022-10-22T04:46:00.513Z,4.75
2022-10-22T04:47:02.722Z,4.90
2022-10-22T04:48:05.270Z,4.50
2022-10-22T04:49:07.422Z,4.45
2022-10-22T04:50:09.685Z,4.65
2022-10-22T04:51:15.697Z,4.43
2022-10-22T04:52:17.831Z,4.18
2022-10-22T04:53:19.967Z,4.70
2022-10-22T04:54:22.344Z,4.40
2022-10-22T04:55:24.536Z,4.63
2022-10-22T04:56:30.769Z,4.70
2022-10-22T04:57:32.949Z,4.25
2022-10-22T04:58:35.150Z,5.00
2022-10-22T04:59:37.336Z,4.25
2022-10-22T05:00:39.531Z,4.70
2022-10-22T05:01:44.351Z,4.32
2022-10-22T05:02:50.762Z,5.78
2022-10-22T05:03:55.276Z,4.80
2022-10-22T05:04:57.372Z,5.63
2022-10-22T05:06:01.774Z,6.18
2022-10-22T05:07:03.973Z,5.60
2022-10-22T05:08:06.082Z,5.57
2022-10-22T05:09:12.561Z,5.45
2022-10-22T05:10:14.825Z,6.30
2022-10-22T05:11:22.197Z,6.03
2022-10-22T05:12:24.366Z,5.07
2022-10-22T05:13:26.514Z,5.88
2022-10-22T05:14:28.633Z,5.68
2022-10-22T05:15:30.725Z,5.75
2022-10-22T05:16:34.051Z,6.25
2022-10-22T05:17:37.530Z,5.88
2022-10-22T05:18:41.773Z,5.53
2022-10-22T05:19:43.865Z,5.50
2022-10-22T05:20:45.998Z,5.35
2022-10-22T05:21:48.167Z,6.13
2022-10-22T05:22:50.291Z,5.00
2022-10-22T05:23:54.834Z,5.18
2022-10-22T05:24:57.055Z,5.90
2022-10-22T05:26:05.378Z,5.63
2022-10-22T05:27:07.538Z,5.60
2022-10-22T05:28:09.733Z,5.65
2022-10-22T05:29:11.843Z,6.57
2022-10-22T05:30:13.994Z,5.57
2022-10-22T05:31:17.841Z,5.03
2022-10-22T05:32:20.021Z,5.95
2022-10-22T05:33:24.130Z,5.70
2022-10-22T05:34:26.407Z,5.90
2022-10-22T05:35:28.597Z,6.30
2022-10-22T05:36:30.739Z,5.72
2022-10-22T05:37:32.863Z,5.30
2022-10-22T05:38:35.696Z,4.97
2022-10-22T05:39:40.212Z,5.70
2022-10-22T05:40:42.436Z,5.57
2022-10-22T05:41:44.578Z,6.28
2022-10-22T05:42:46.772Z,5.50
2022-10-22T05:43:49.649Z,5.97
2022-10-22T05:44:51.749Z,6.13
2022-10-22T05:45:53.881Z,5.00
2022-10-22T05:46:55.981Z,5.95
2022-10-22T05:47:58.095Z,5.18
2022-10-22T05:49:03.262Z,5.13
2022-10-22T05:50:05.871Z,5.78
2022-10-22T05:51:11.018Z,5.57
2022-10-22T05:52:13.127Z,5.10
2022-10-22T05:53:15.288Z,7.50
2022-10-22T05:54:19.591Z,6.10
2022-10-22T05:55:21.774Z,5.88
2022-10-22T05:56:24.822Z,5.28
2022-10-22T05:57:26.933Z,5.68
2022-10-22T05:58:29.171Z,5.00
2022-10-22T05:59:31.355Z,5.78
2022-10-22T06:00:34.718Z,4.93
2022-10-22T06:01:38.465Z,5.72
2022-10-22T06:02:40.827Z,5.20
2022-10-22T06:03:44.381Z,5.85
2022-10-22T06:04:47.663Z,6.40
2022-10-22T06:05:49.779Z,5.50
2022-10-22T06:06:53.497Z,5.72
2022-10-22T06:07:57.295Z,6.25
2022-10-22T06:09:13.514Z,6.13
2022-10-22T06:10:18.374Z,5.38
2022-10-22T06:11:22.705Z,5.60
2022-10-22T06:12:25.537Z,6.15
2022-10-22T06:13:27.663Z,6.60
2022-10-22T06:14:32.200Z,6.10
2022-10-22T06:15:34.356Z,5.32
2022-10-22T06:16:36.503Z,5.72
2022-10-22T06:17:38.618Z,5.88
2022-10-22T06:18:41.424Z,5.47
2022-10-22T06:19:43.550Z,5.40
2022-10-22T06:20:45.759Z,5.40
2022-10-22T06:21:48.607Z,5.43
2022-10-22T06:22:50.726Z,6.05
2022-10-22T06:23:52.847Z,5.60
2022-10-22T06:24:54.945Z,6.25
2022-10-22T06:25:58.847Z,5.80
2022-10-22T06:27:00.999Z,5.60
2022-10-22T06:28:03.210Z,6.40
2022-10-22T06:29:05.609Z,5.88
2022-10-22T06:30:08.543Z,5.70
2022-10-22T06:31:10.813Z,5.78
2022-10-22T06:32:13.539Z,5.68
2022-10-22T06:33:16.073Z,5.57
2022-10-22T06:34:19.016Z,6.75
2022-10-22T06:35:21.236Z,4.85
2022-10-22T06:36:24.347Z,5.03
2022-10-22T06:37:26.534Z,5.63
2022-10-22T06:38:28.655Z,6.10
2022-10-22T06:39:30.902Z,5.55
2022-10-22T06:40:33.915Z,5.68
2022-10-22T06:41:36.284Z,6.43
2022-10-22T06:42:38.717Z,5.65
2022-10-22T06:43:45.181Z,6.80
2022-10-22T06:44:47.303Z,4.90
2022-10-22T06:45:49.567Z,5.35
2022-10-22T06:46:52.979Z,6.25
2022-10-22T06:47:55.809Z,5.80
2022-10-22T06:49:03.105Z,6.38
2022-10-22T06:50:05.743Z,5.97
2022-10-22T06:51:10.478Z,5.75
2022-10-22T06:52:12.826Z,5.05
2022-10-22T06:53:14.962Z,6.78
2022-10-22T06:54:17.209Z,6.05
2022-10-22T06:55:19.355Z,5.78
2022-10-22T06:56:24.273Z,5.63
2022-10-22T06:57:26.420Z,5.32
2022-10-22T06:58:28.551Z,4.82
2022-10-22T06:59:30.874Z,6.18
2022-10-22T07:01:40.982Z,5.13
2022-10-22T07:02:43.467Z,5.55
2022-10-22T07:03:46.096Z,5.30
2022-10-22T07:04:48.271Z,4.55
2022-10-22T07:05:50.438Z,5.25
2022-10-22T07:06:55.034Z,5.20
2022-10-22T07:07:57.128Z,4.63
2022-10-22T07:09:00.612Z,4.53
2022-10-22T07:10:02.865Z,4.82
2022-10-22T07:11:07.718Z,4.07
2022-10-22T07:12:09.785Z,4.50
2022-10-22T07:13:11.922Z,5.03
2022-10-22T07:14:14.667Z,4.45
2022-10-22T07:15:16.782Z,5.13
2022-10-22T07:16:19.262Z,4.28
2022-10-22T07:17:21.370Z,4.53
2022-10-22T07:18:23.485Z,4.53
2022-10-22T07:19:25.638Z,4.53
2022-10-22T07:20:27.738Z,4.70
2022-10-22T07:21:30.927Z,5.18
2022-10-22T07:22:33.277Z,4.97
2022-10-22T07:23:35.814Z,4.60
2022-10-22T07:24:37.939Z,3.75
2022-10-22T07:25:41.317Z,4.55
2022-10-22T07:26:43.469Z,4.22
2022-10-22T07:27:45.605Z,3.80
2022-10-22T07:28:48.074Z,3.80
2022-10-22T07:29:50.186Z,4.15
2022-10-22T07:30:52.318Z,4.00
2022-10-22T07:31:54.502Z,5.00
2022-10-22T07:32:56.623Z,4.00
2022-10-22T07:33:58.793Z,4.10
2022-10-22T07:35:01.149Z,5.03
2022-10-22T07:36:05.693Z,4.78
2022-10-22T07:37:07.811Z,4.18
2022-10-22T07:38:09.979Z,4.85
2022-10-22T07:39:12.117Z,4.22
2022-10-22T07:40:14.311Z,3.92
2022-10-22T07:41:17.496Z,4.45
2022-10-22T07:42:19.734Z,4.22
2022-10-22T07:43:22.069Z,4.78
2022-10-22T07:44:24.157Z,4.13
2022-10-22T07:45:26.359Z,4.25
2022-10-22T07:46:28.579Z,4.38
2022-10-22T07:47:30.701Z,4.60
2022-10-22T07:48:32.825Z,4.32
2022-10-22T07:49:34.929Z,4.40
2022-10-22T07:50:37.239Z,4.20
2022-10-22T07:51:39.585Z,4.15
2022-10-22T07:52:42.089Z,4.28
2022-10-22T07:53:44.459Z,4.78
2022-10-22T07:54:46.559Z,4.25
2022-10-22T07:55:50.353Z,3.97
2022-10-22T07:56:52.445Z,4.43
2022-10-22T07:57:54.603Z,4.85
2022-10-22T07:58:56.823Z,4.53
2022-10-22T07:59:59.486Z,4.93
2022-10-22T08:01:02.671Z,4.95
2022-10-22T08:02:04.819Z,4.53
2022-10-22T08:03:06.905Z,4.43
2022-10-22T08:04:09.831Z,4.60
2022-10-22T08:05:13.362Z,4.97
2022-10-22T08:06:15.822Z,4.82
2022-10-22T08:07:18.798Z,4.20
2022-10-22T08:08:21.730Z,4.60
2022-10-22T08:09:23.982Z,5.03
2022-10-22T08:10:26.150Z,3.92
2022-10-22T08:11:28.395Z,4.32
2022-10-22T08:12:30.638Z,4.30
2022-10-22T08:13:32.926Z,4.72
2022-10-22T08:14:35.098Z,4.30
2022-10-22T08:15:37.283Z,3.97
2022-10-22T08:16:39.434Z,3.85
2022-10-22T08:17:41.705Z,3.78
2022-10-22T08:18:44.310Z,4.32
2022-10-22T08:19:46.397Z,3.95
2022-10-22T08:20:48.537Z,4.10
2022-10-22T08:21:50.642Z,3.72
2022-10-22T08:22:52.786Z,3.40
2022-10-22T08:23:55.007Z,3.53
2022-10-22T08:24:57.159Z,3.53
2022-10-22T08:26:00.560Z,3.65
2022-10-22T08:27:02.737Z,3.70
2022-10-22T08:28:05.038Z,3.95
2022-10-22T08:29:07.788Z,3.92
2022-10-22T08:30:10.666Z,4.05
2022-10-22T08:31:12.928Z,4.03
2022-10-22T08:32:15.218Z,4.35
2022-10-22T08:33:17.414Z,3.67
2022-10-22T08:34:20.286Z,4.38
2022-10-22T08:35:22.494Z,3.45
2022-10-22T08:36:24.663Z,3.75
2022-10-22T08:37:27.546Z,4.72
2022-10-22T08:38:31.427Z,4.35
2022-10-22T08:39:33.589Z,3.95
2022-10-22T08:40:40.337Z,4.65
2022-10-22T08:42:24.993Z,3.67
2022-10-22T08:44:04.474Z,4.00
2022-10-22T08:45:22.952Z,3.38
2022-10-22T08:46:33.772Z,3.50
2022-10-22T08:48:53.845Z,3.63
2022-10-22T08:49:57.142Z,4.60
2022-10-22T08:50:59.574Z,3.58
2022-10-22T08:52:02.146Z,3.78
2022-10-22T08:53:08.265Z,3.00
2022-10-22T08:54:33.459Z,3.63
2022-10-22T08:55:37.654Z,3.75
2022-10-22T08:56:44.393Z,3.30
2022-10-22T08:57:58.458Z,3.67
2022-10-22T08:59:10.356Z,3.90
2022-10-22T09:00:34.502Z,4.03
2022-10-22T09:01:45.594Z,3.45
2022-10-22T09:03:15.733Z,3.70
2022-10-22T09:04:30.898Z,3.87
2022-10-22T09:05:47.207Z,3.50
2022-10-22T09:06:52.088Z,3.25
2022-10-22T09:07:56.030Z,3.78
2022-10-22T09:09:01.117Z,3.47
2022-10-22T09:10:04.034Z,3.47
2022-10-22T09:11:09.298Z,3.75
2022-10-22T09:12:20.165Z,3.28
2022-10-22T09:13:24.009Z,3.50
2022-10-22T09:14:26.631Z,3.90
2022-10-22T09:15:31.340Z,4.93
2022-10-22T09:16:36.183Z,3.50
2022-10-22T09:17:58.760Z,3.78
2022-10-22T09:19:30.947Z,3.90
2022-10-22T09:20:41.861Z,3.75
2022-10-22T09:21:50.768Z,3.22
2022-10-22T09:22:59.241Z,3.30
2022-10-22T09:24:09.871Z,4.13
2022-10-22T09:25:22.249Z,3.25
2022-10-22T09:26:26.071Z,3.20
2022-10-22T09:27:30.836Z,3.60
2022-10-22T09:28:33.039Z,3.22
2022-10-22T09:29:35.173Z,3.42
2022-10-22T09:30:39.173Z,3.72
2022-10-22T09:31:41.330Z,2.72
2022-10-22T09:32:43.777Z,3.78
2022-10-22T09:33:49.030Z,3.15
2022-10-22T09:34:58.126Z,3.13
2022-10-22T09:36:03.638Z,2.72
2022-10-22T09:37:09.697Z,2.60
2022-10-22T09:38:14.156Z,3.17
2022-10-22T09:39:25.793Z,3.85
2022-10-22T09:40:28.024Z,2.67
2022-10-22T09:41:30.381Z,2.65
2022-10-22T09:42:34.907Z,2.70
2022-10-22T09:43:37.137Z,3.15
2022-10-22T09:44:39.332Z,2.78
2022-10-22T09:45:43.005Z,2.95
2022-10-22T09:46:46.026Z,3.05
2022-10-22T09:48:03.741Z,3.10
2022-10-22T09:49:15.190Z,2.83
2022-10-22T09:50:26.936Z,2.60
2022-10-22T09:51:54.799Z,3.20
2022-10-22T09:53:12.448Z,2.90
2022-10-22T09:54:20.787Z,3.22
2022-10-22T09:55:25.075Z,2.85
2022-10-22T09:56:41.745Z,2.88
2022-10-22T09:57:44.559Z,3.47
2022-10-22T09:58:51.084Z,3.92
2022-10-22T09:59:57.423Z,2.67
2022-10-22T10:01:01.246Z,2.67
2022-10-22T10:02:33.537Z,3.10
2022-10-22T10:03:35.709Z,2.95
2022-10-22T10:04:46.957Z,3.28
2022-10-22T10:05:53.195Z,2.95
2022-10-22T10:06:56.577Z,3.22
2022-10-22T10:08:02.344Z,3.65
2022-10-22T10:09:15.771Z,3.53
2022-10-22T10:10:27.814Z,3.55
2022-10-22T10:11:44.797Z,3.42
2022-10-22T10:13:13.622Z,3.20
2022-10-22T10:14:29.365Z,3.50
2022-10-22T10:15:55.031Z,3.10
2022-10-22T10:17:05.079Z,3.45
2022-10-22T10:18:16.198Z,3.60
2022-10-22T10:19:51.971Z,3.05
2022-10-22T10:21:18.915Z,2.58
2022-10-22T10:22:48.666Z,3.20
2022-10-22T10:24:12.329Z,3.38
2022-10-22T10:25:20.777Z,4.10
2022-10-22T10:26:28.415Z,3.05
2022-10-22T10:27:37.947Z,3.05
2022-10-22T10:29:10.722Z,2.85
2022-10-22T10:30:17.302Z,2.70
2022-10-22T10:31:48.358Z,2.85
2022-10-22T10:34:14.639Z,2.47
2022-10-22T10:36:32.130Z,3.65
2022-10-22T10:37:46.117Z,2.08
2022-10-22T10:39:06.647Z,2.67
2022-10-22T10:40:17.482Z,2.90
2022-10-22T10:41:25.048Z,2.25
2022-10-22T10:42:36.601Z,2.08
2022-10-22T10:43:44.411Z,2.10
2022-10-22T10:44:52.975Z,2.17
2022-10-22T10:46:19.802Z,2.13
2022-10-22T10:47:43.431Z,2.22
2022-10-22T10:49:00.300Z,2.42
2022-10-22T10:50:22.690Z,2.45
2022-10-22T10:51:30.660Z,2.60
2022-10-22T10:52:43.932Z,2.30
2022-10-22T10:53:59.188Z,2.85
2022-10-22T10:55:19.868Z,2.15
2022-10-22T10:56:44.660Z,2.90
2022-10-22T10:57:56.154Z,2.20
2022-10-22T10:59:16.928Z,2.58
2022-10-22T11:01:36.957Z,2.50
2022-10-22T11:02:57.737Z,2.13
2022-10-22T11:04:11.700Z,2.42
2022-10-22T11:05:25.945Z,1.98
2022-10-22T11:06:32.719Z,2.10
2022-10-22T11:07:57.026Z,2.42
2022-10-22T11:09:05.402Z,2.40
2022-10-22T11:10:27.900Z,1.85
2022-10-22T11:11:36.369Z,1.90
2022-10-22T11:12:44.571Z,2.42
2022-10-22T11:13:55.740Z,2.20
2022-10-22T11:15:09.549Z,2.50
2022-10-22T11:16:17.813Z,2.65
2022-10-22T11:17:23.058Z,2.17
2022-10-22T11:18:33.071Z,3.08
2022-10-22T11:19:51.695Z,3.28
2022-10-22T11:21:33.690Z,2.83
2022-10-22T11:23:16.836Z,2.35
2022-10-22T11:24:26.041Z,3.05
2022-10-22T11:25:39.656Z,2.67
2022-10-22T11:26:50.238Z,3.78
2022-10-22T11:28:03.166Z,2.30
2022-10-22T11:29:18.660Z,3.00
2022-10-22T11:30:24.011Z,2.85
2022-10-22T11:31:26.677Z,2.70
2022-10-22T11:32:30.397Z,2.63
2022-10-22T11:34:04.874Z,2.45
2022-10-22T11:35:26.594Z,2.25
2022-10-22T11:37:39.195Z,2.47
2022-10-22T11:38:41.910Z,2.50
2022-10-22T11:39:47.544Z,2.13
2022-10-22T11:41:16.986Z,2.63
2022-10-22T11:42:38.185Z,3.20
2022-10-22T11:43:58.671Z,2.97
2022-10-22T11:45:05.344Z,2.95
2022-10-22T11:46:16.838Z,2.50
2022-10-22T11:48:02.252Z,2.60
2022-10-22T11:49:41.297Z,2.33
2022-10-22T11:50:54.994Z,3.30
2022-10-22T11:52:24.181Z,2.58
2022-10-22T11:53:30.877Z,2.60
2022-10-22T11:54:54.083Z,2.70
2022-10-22T11:55:59.794Z,2.95
2022-10-22T11:57:16.927Z,3.35
2022-10-22T11:58:50.703Z,3.35
2022-10-22T12:00:00.855Z,2.90
2022-10-22T12:01:02.961Z,2.90
2022-10-22T12:02:24.381Z,3.17
2022-10-22T12:03:32.559Z,3.50
2022-10-22T12:04:42.369Z,3.33
2022-10-22T12:05:45.846Z,3.47
2022-10-22T12:07:01.859Z,5.13
2022-10-22T12:08:17.374Z,2.97
2022-10-22T12:09:20.327Z,2.63
2022-10-22T12:10:27.454Z,3.40
2022-10-22T12:11:37.362Z,3.42
2022-10-22T12:12:40.340Z,3.30
2022-10-22T12:14:20.192Z,3.50
2022-10-22T12:15:28.969Z,3.17
2022-10-22T12:16:54.742Z,3.10
2022-10-22T12:18:02.296Z,3.33
2022-10-22T12:19:27.475Z,3.10
2022-10-22T12:20:29.870Z,2.90
2022-10-22T12:21:33.935Z,3.28
2022-10-22T12:22:37.894Z,3.33
2022-10-22T12:23:40.219Z,3.30
2022-10-22T12:24:46.746Z,3.15
2022-10-22T12:25:48.870Z,2.85
2022-10-22T12:26:52.639Z,3.03
2022-10-22T12:27:58.208Z,3.97
2022-10-22T12:29:10.676Z,3.70
2022-10-22T12:30:34.640Z,2.95
2022-10-22T12:31:38.894Z,3.22
2022-10-22T12:32:41.492Z,2.78
2022-10-22T12:33:44.153Z,2.90
2022-10-22T12:35:57.545Z,2.95
2022-10-22T12:36:59.701Z,2.63
2022-10-22T12:38:08.375Z,3.25
2022-10-22T12:39:20.060Z,2.85
2022-10-22T12:40:27.414Z,2.92
2022-10-22T12:41:34.645Z,2.67
2022-10-22T12:42:38.108Z,3.70
2022-10-22T12:43:40.307Z,3.08
2022-10-22T12:44:44.553Z,2.80
2022-10-22T12:45:49.299Z,2.80
2022-10-22T12:46:54.521Z,3.00
2022-10-22T12:48:02.091Z,3.00
2022-10-22T12:49:14.038Z,2.72
2022-10-22T12:50:20.458Z,2.58
2022-10-22T12:51:22.750Z,2.97
2022-10-22T12:52:26.090Z,3.20
2022-10-22T12:53:32.872Z,3.15
2022-10-22T12:54:35.527Z,2.75
2022-10-22T12:55:39.266Z,2.80
2022-10-22T12:56:41.441Z,3.10
2022-10-22T12:57:46.096Z,3.70
2022-10-22T12:59:17.299Z,3.17
2022-10-22T13:00:28.463Z,2.75
2022-10-22T13:01:38.877Z,3.42
2022-10-22T13:02:43.468Z,3.30
2022-10-22T13:03:51.688Z,2.65
2022-10-22T13:05:15.006Z,2.70
2022-10-22T13:06:20.145Z,2.40
2022-10-22T13:07:22.518Z,2.33
2022-10-22T13:08:28.255Z,2.22
2022-10-22T13:09:55.366Z,2.15
2022-10-22T13:11:08.232Z,3.10
2022-10-22T13:12:18.599Z,2.03
2022-10-22T13:13:42.555Z,2.30
2022-10-22T13:14:46.428Z,1.88
2022-10-22T13:15:48.561Z,1.77
2022-10-22T13:17:42.194Z,2.35
2022-10-22T13:18:45.751Z,1.95
2022-10-22T13:20:02.059Z,1.42
2022-10-22T13:21:05.865Z,1.85
2022-10-22T13:22:26.843Z,1.90
2022-10-22T13:24:32.657Z,1.33
2022-10-22T13:25:39.590Z,1.33
2022-10-22T13:26:41.803Z,2.28
2022-10-22T13:27:50.597Z,1.48
2022-10-22T13:28:55.314Z,1.67
2022-10-22T13:30:10.323Z,2.45
2022-10-22T13:31:24.554Z,1.52
2022-10-22T13:32:32.099Z,1.48
2022-10-22T13:33:46.668Z,2.20
2022-10-22T13:34:49.088Z,1.73
2022-10-22T13:35:51.191Z,2.05
2022-10-22T13:36:53.559Z,1.58
2022-10-22T13:37:55.826Z,1.85
2022-10-22T13:38:58.191Z,2.08
2022-10-22T13:40:00.337Z,1.70
2022-10-22T13:41:04.758Z,1.63
2022-10-22T13:42:12.359Z,2.47
2022-10-22T13:43:15.533Z,1.85
2022-10-22T13:44:18.777Z,2.38
2022-10-22T13:45:21.179Z,1.95
2022-10-22T13:46:24.797Z,1.70
2022-10-22T13:47:28.880Z,2.20
2022-10-22T13:48:31.099Z,2.50
2022-10-22T13:49:33.284Z,2.05
2022-10-22T13:50:35.409Z,1.95
2022-10-22T13:51:38.734Z,2.10
2022-10-22T13:52:47.812Z,1.80
2022-10-22T13:53:52.420Z,2.35
2022-10-22T13:54:54.591Z,1.95
2022-10-22T13:55:56.790Z,2.08
2022-10-22T13:56:58.938Z,1.98
2022-10-22T13:58:10.695Z,2.28
2022-10-22T13:59:12.933Z,2.75
2022-10-22T14:00:18.216Z,2.03
2022-10-22T14:01:23.479Z,3.05
2022-10-22T14:02:26.570Z,2.30
2022-10-22T14:03:32.398Z,1.95
2022-10-22T14:04:38.254Z,2.10
2022-10-22T14:05:40.463Z,2.58
2022-10-22T14:06:42.813Z,2.22
2022-10-22T14:07:45.163Z,2.22
2022-10-22T14:08:50.656Z,3.17
2022-10-22T14:09:52.854Z,2.67
2022-10-22T14:10:55.483Z,2.40
2022-10-22T14:11:57.759Z,3.28
2022-10-22T14:12:59.927Z,3.20
2022-10-22T14:14:08.839Z,2.00
2022-10-22T14:15:15.675Z,4.20
2022-10-22T14:16:21.726Z,3.20
2022-10-22T14:17:23.857Z,3.72
2022-10-22T14:18:31.426Z,2.55
2022-10-22T14:19:33.951Z,2.60
2022-10-22T14:20:40.107Z,2.80
2022-10-22T14:21:42.337Z,2.83
2022-10-22T14:22:45.551Z,2.90
2022-10-22T14:23:48.567Z,2.30
2022-10-22T14:24:51.948Z,2.75
2022-10-22T14:25:54.748Z,1.90
2022-10-22T14:26:56.831Z,3.17
2022-10-22T14:27:58.949Z,2.20
2022-10-22T14:29:09.241Z,2.83
2022-10-22T14:31:18.476Z,2.13
2022-10-22T14:32:20.611Z,3.10
2022-10-22T14:33:32.324Z,2.95
2022-10-22T14:34:35.322Z,3.13
2022-10-22T14:35:37.453Z,2.20
2022-10-22T14:36:39.659Z,2.70
2022-10-22T14:37:42.141Z,2.60
2022-10-22T14:38:46.550Z,1.98
2022-10-22T14:39:52.517Z,2.35
2022-10-22T14:40:54.943Z,2.15
2022-10-22T14:41:57.114Z,2.17
2022-10-22T14:42:59.215Z,2.53
2022-10-22T14:44:01.714Z,2.30
2022-10-22T14:45:05.765Z,2.30
2022-10-22T14:46:11.086Z,1.92
2022-10-22T14:47:13.766Z,2.33
2022-10-22T14:48:16.994Z,2.13
2022-10-22T14:49:19.714Z,3.15
2022-10-22T14:50:22.111Z,2.92
2022-10-22T14:51:24.490Z,1.75
2022-10-22T14:52:27.325Z,2.13
2022-10-22T14:53:30.319Z,2.00
2022-10-22T14:54:34.021Z,2.85
2022-10-22T14:55:36.269Z,1.83